Ferry Kyoto2 — JI3701 — position and weather

sailwx.info

Track history (hours):
 
Tides and Currents Weather Stations Pressure Air Temp Water Temp Dewpoint Dewpoint Depression Visibility Wind Speed Wind Dir Waves Ship Positions

Ferry Kyoto2

Last reported at 2015-May-29 12:34 UTC. Time now 2015-May-30 14:27 UTC.
Position N 34°34' E 134°49'.

Length 167 m; draft 6 m.

Type: Passenger vessel. MMSI: 431301641.

Date/timePositionNaut miles runAvg speedWind from/ knotsBaromVisibWave heightAir tempDewpointWater temp
2015-May-29 12:34N 34°34' E 134°49'2120.6
2015-May-29 11:34N 34°36' E 135°14'10 9.1
2015-May-29 10:29N 34°37' E 135°26'0 0.0
2015-May-29 09:29N 34°37' E 135°26'0 0.0
2015-May-29 08:29N 34°37' E 135°26'0 0.0
2015-May-29 07:29N 34°37' E 135°26'0 0.0
2015-May-29 06:17N 34°37' E 135°26'0 0.0
2015-May-29 05:29N 34°37' E 135°26'0 0.0
2015-May-29 04:23N 34°37' E 135°26'0 0.0
2015-May-29 03:29N 34°37' E 135°26'0 0.0
2015-May-29 02:29N 34°37' E 135°26'0 0.0
2015-May-29 01:29N 34°37' E 135°26'0 0.0
2015-May-29 00:23N 34°37' E 135°26'0 0.0
2015-May-28 23:30N 34°37' E 135°26'1111.6
2015-May-28 22:33N 34°35' E 135°13'2019.6
2015-May-28 21:33N 34°33' E 134°49'2 0.1
2015-May-27 12:33N 34°35' E 134°51'2020.1
2015-May-27 11:34N 34°36' E 135°15'9 7.4
2015-May-27 10:18N 34°37' E 135°26'0 0.0
2015-May-27 09:24N 34°37' E 135°26'0 0.0
2015-May-27 08:30N 34°37' E 135°26'0 0.0
2015-May-27 07:31N 34°37' E 135°26'0 0.0
2015-May-27 06:30N 34°37' E 135°26'0 0.0
2015-May-27 05:30N 34°37' E 135°26'0 0.0
2015-May-27 04:34N 34°37' E 135°26'0 0.0
2015-May-27 03:33N 34°37' E 135°26'0 0.0
2015-May-27 02:33N 34°37' E 135°26'0 0.0
2015-May-27 01:33N 34°37' E 135°26'0 0.0
2015-May-27 00:33N 34°37' E 135°26'0 0.0
2015-May-26 23:33N 34°37' E 135°26'1110.6
2015-May-26 22:33N 34°35' E 135°13'1918.7
2015-May-26 21:33N 34°33' E 134°51'1 0.0
2015-May-25 12:32N 34°34' E 134°50'2020.1
2015-May-25 11:33N 34°36' E 135°14'10 9.3
2015-May-25 10:30N 34°37' E 135°26'0 0.0
2015-May-25 09:30N 34°37' E 135°26'0 0.0
2015-May-25 08:12N 34°37' E 135°26'0 0.0
2015-May-25 07:30N 34°37' E 135°26'0 0.0
2015-May-25 06:30N 34°37' E 135°26'0 0.0
2015-May-25 05:30N 34°37' E 135°26'0 0.0
2015-May-25 04:30N 34°37' E 135°26'0 0.0
2015-May-25 03:30N 34°37' E 135°26'0 0.0
2015-May-25 02:24N 34°37' E 135°26'0 0.0
2015-May-25 01:30N 34°37' E 135°26'0 0.0
2015-May-25 00:30N 34°37' E 135°26'0 0.0
2015-May-24 23:33N 34°37' E 135°26'9 8.9
2015-May-24 22:33N 34°34' E 135°16'1919.3
2015-May-24 21:33N 34°34' E 134°53'2 0.1
2015-May-23 12:30N 34°35' E 134°50'2021.3
2015-May-23 11:33N 34°36' E 135°14'10 9.2
2015-May-23 10:30N 34°37' E 135°26'0 0.0
2015-May-23 09:30N 34°37' E 135°26'0 0.0
2015-May-23 08:30N 34°37' E 135°26'0 0.0
2015-May-23 07:30N 34°37' E 135°26'0 0.0
2015-May-23 06:30N 34°37' E 135°26'0 0.0
2015-May-23 05:30N 34°37' E 135°26'0 0.0
2015-May-23 04:30N 34°37' E 135°26'0 0.0
2015-May-23 03:30N 34°37' E 135°26'0 0.0
2015-May-23 02:30N 34°37' E 135°26'0 0.0
2015-May-23 01:24N 34°37' E 135°26'0 0.0
2015-May-23 00:24N 34°37' E 135°26'0 0.0
2015-May-22 23:30N 34°37' E 135°26'9 9.2
2015-May-22 22:33N 34°35' E 135°16'1919.2
2015-May-22 21:33N 34°34' E 134°52'2 0.1
2015-May-21 12:30N 34°35' E 134°50'2021.3
2015-May-21 11:33N 34°36' E 135°14'10 9.3
2015-May-21 10:31N 34°37' E 135°26'0 0.0
2015-May-21 09:31N 34°37' E 135°26'0 0.0
2015-May-21 08:19N 34°37' E 135°26'0 0.0
2015-May-21 07:31N 34°37' E 135°26'0 0.0
2015-May-21 06:31N 34°37' E 135°26'0 0.0
2015-May-21 05:31N 34°37' E 135°26'0 0.0
2015-May-21 04:31N 34°37' E 135°26'0 0.0
2015-May-21 03:31N 34°37' E 135°26'0 0.0
2015-May-21 02:31N 34°37' E 135°26'0 0.0
2015-May-21 01:31N 34°37' E 135°26'0 0.0
2015-May-21 00:31N 34°37' E 135°26'0 0.0
2015-May-20 23:33N 34°37' E 135°26'1111.3
2015-May-20 22:33N 34°35' E 135°12'2019.1
2015-May-20 21:29N 34°32' E 134°48'  
Track history (hours):
 
Tides and Currents Weather Stations Pressure Air Temp Water Temp Dewpoint Dewpoint Depression Visibility Wind Speed Wind Dir Waves Ship Positions

Ferry Kyoto2

Last reported at 2015-May-29 12:34 UTC. Time now 2015-May-30 14:27 UTC.
Position N 34°34' E 134°49'.

Length 167 m; draft 6 m.

Type: Passenger vessel. MMSI: 431301641.

Date/timePositionNaut miles runAvg speedWind from/ knotsBaromVisibWave heightAir tempDewpointWater temp
2015-May-29 12:34N 34°34' E 134°49'2120.6
2015-May-29 11:34N 34°36' E 135°14'10 9.1
2015-May-29 10:29N 34°37' E 135°26'0 0.0
2015-May-29 09:29N 34°37' E 135°26'0 0.0
2015-May-29 08:29N 34°37' E 135°26'0 0.0
2015-May-29 07:29N 34°37' E 135°26'0 0.0
2015-May-29 06:17N 34°37' E 135°26'0 0.0
2015-May-29 05:29N 34°37' E 135°26'0 0.0
2015-May-29 04:23N 34°37' E 135°26'0 0.0
2015-May-29 03:29N 34°37' E 135°26'0 0.0
2015-May-29 02:29N 34°37' E 135°26'0 0.0
2015-May-29 01:29N 34°37' E 135°26'0 0.0
2015-May-29 00:23N 34°37' E 135°26'0 0.0
2015-May-28 23:30N 34°37' E 135°26'1111.6
2015-May-28 22:33N 34°35' E 135°13'2019.6
2015-May-28 21:33N 34°33' E 134°49'2 0.1
2015-May-27 12:33N 34°35' E 134°51'2020.1
2015-May-27 11:34N 34°36' E 135°15'9 7.4
2015-May-27 10:18N 34°37' E 135°26'0 0.0
2015-May-27 09:24N 34°37' E 135°26'0 0.0
2015-May-27 08:30N 34°37' E 135°26'0 0.0
2015-May-27 07:31N 34°37' E 135°26'0 0.0
2015-May-27 06:30N 34°37' E 135°26'0 0.0
2015-May-27 05:30N 34°37' E 135°26'0 0.0
2015-May-27 04:34N 34°37' E 135°26'0 0.0
2015-May-27 03:33N 34°37' E 135°26'0 0.0
2015-May-27 02:33N 34°37' E 135°26'0 0.0
2015-May-27 01:33N 34°37' E 135°26'0 0.0
2015-May-27 00:33N 34°37' E 135°26'0 0.0
2015-May-26 23:33N 34°37' E 135°26'1110.6
2015-May-26 22:33N 34°35' E 135°13'1918.7
2015-May-26 21:33N 34°33' E 134°51'1 0.0
2015-May-25 12:32N 34°34' E 134°50'2020.1
2015-May-25 11:33N 34°36' E 135°14'10 9.3
2015-May-25 10:30N 34°37' E 135°26'0 0.0
2015-May-25 09:30N 34°37' E 135°26'0 0.0
2015-May-25 08:12N 34°37' E 135°26'0 0.0
2015-May-25 07:30N 34°37' E 135°26'0 0.0
2015-May-25 06:30N 34°37' E 135°26'0 0.0
2015-May-25 05:30N 34°37' E 135°26'0 0.0
2015-May-25 04:30N 34°37' E 135°26'0 0.0
2015-May-25 03:30N 34°37' E 135°26'0 0.0
2015-May-25 02:24N 34°37' E 135°26'0 0.0
2015-May-25 01:30N 34°37' E 135°26'0 0.0
2015-May-25 00:30N 34°37' E 135°26'0 0.0
2015-May-24 23:33N 34°37' E 135°26'9 8.9
2015-May-24 22:33N 34°34' E 135°16'1919.3
2015-May-24 21:33N 34°34' E 134°53'2 0.1
2015-May-23 12:30N 34°35' E 134°50'2021.3
2015-May-23 11:33N 34°36' E 135°14'10 9.2
2015-May-23 10:30N 34°37' E 135°26'0 0.0
2015-May-23 09:30N 34°37' E 135°26'0 0.0
2015-May-23 08:30N 34°37' E 135°26'0 0.0
2015-May-23 07:30N 34°37' E 135°26'0 0.0
2015-May-23 06:30N 34°37' E 135°26'0 0.0
2015-May-23 05:30N 34°37' E 135°26'0 0.0
2015-May-23 04:30N 34°37' E 135°26'0 0.0
2015-May-23 03:30N 34°37' E 135°26'0 0.0
2015-May-23 02:30N 34°37' E 135°26'0 0.0
2015-May-23 01:24N 34°37' E 135°26'0 0.0
2015-May-23 00:24N 34°37' E 135°26'0 0.0
2015-May-22 23:30N 34°37' E 135°26'9 9.2
2015-May-22 22:33N 34°35' E 135°16'1919.2
2015-May-22 21:33N 34°34' E 134°52'2 0.1
2015-May-21 12:30N 34°35' E 134°50'2021.3
2015-May-21 11:33N 34°36' E 135°14'10 9.3
2015-May-21 10:31N 34°37' E 135°26'0 0.0
2015-May-21 09:31N 34°37' E 135°26'0 0.0
2015-May-21 08:19N 34°37' E 135°26'0 0.0
2015-May-21 07:31N 34°37' E 135°26'0 0.0
2015-May-21 06:31N 34°37' E 135°26'0 0.0
2015-May-21 05:31N 34°37' E 135°26'0 0.0
2015-May-21 04:31N 34°37' E 135°26'0 0.0
2015-May-21 03:31N 34°37' E 135°26'0 0.0
2015-May-21 02:31N 34°37' E 135°26'0 0.0
2015-May-21 01:31N 34°37' E 135°26'0 0.0
2015-May-21 00:31N 34°37' E 135°26'0 0.0
2015-May-20 23:33N 34°37' E 135°26'1111.3
2015-May-20 22:33N 34°35' E 135°12'2019.1
2015-May-20 21:29N 34°32' E 134°48'  

Dump ship's entire track history